TOURFACTS.DK  
Stats and Facts from Tour de France.

Tour de France 2018 starts in 203 days
  Riders   Stages   Teams   Summits   Yearly  


 
Search by year

 2017 - St. 21:  14824 starters.
  5132 different riders.
  635 teams.
  2232 stages.
  454 restdays.
  439589.60 km.
  5653 abandonnees.


Top 3
Christopher Froome86:20:55
Rigoberto Uran86:21:49
Romain Bardet86:23:15
Warren Barguil169 pt.
Primoz Roglic80 pt.
Thomas De Gendt64 pt.
Michael Matthews359 pt.
André Greipel234 pt.
Edvald Boasson Hagen220 pt.
Simon Yates86:27:09
Louis Meintjes86:29:15
Emanuel Buchmann86:54:16
Facts from Tour de France 2015
  |   Stages.  |   Stage winners.  |   Days in yellow  |   Average speed.  |   Route.  |   Teams.  |   All riders.  |   Rookies.  |   Withdrawls.  |  

  |   GC.  |   Polka  |   Green  |   White  |   Summits. (In tour)  |   Summits. (Points)  |   Miscellaneous.  |  

Stage 4 on 07 - 07 - 2015
         Owning:    Tony Martin      Joaquim Rodriguez      André Greipel      Peter Sagan  

Pick a stage:  1 2 3 4 5 6 7 8 9 10 11 12 13 14 15 16 17 18 19 20 21
  SeraingCambrai | Dist: 223.50 km.
Cat: 4Côte de la Citadelle NamurBELThomas De Gendt
1 point
 

Average speed for all riders in stage:  39,978 km./hr.
    Place:Name:Team:Time:Km/h:
GERTony MartinBELEtixx - Quick Step05:28:58  +  00:00:00=40,764 
GERJohn DegenkolbDEUTeam Giant Alpecin05:29:01  +  00:00:03=40,758 
SVKPeter SaganRUSTinkoff Saxo05:29:01  +  00:00:03=40,758 
4 BELGreg Van AvermaetUSABMC Racing Team05:29:01  +  00:00:03=40,758 
5 NOREdvald Boasson HagenZAFMTN - Qhubeka P/B Samsung05:29:01  +  00:00:03=40,758 
6 FRANacer BouhanniFRACofidis – Solutions Crédits05:29:01  +  00:00:03=40,758 
7 ITAJacopo GuarnieriRUSTeam Katusha05:29:01  +  00:00:03=40,758 
8 FRATony GallopinBELLotto Soudal05:29:01  +  00:00:03=40,758 
9 CZEZdenek StybarBELEtixx - Quick Step05:29:01  +  00:00:03=40,758 
10 FRABryan CoquardFRATeam Europcar05:29:01  +  00:00:03=40,758 
11 ESPAlejandro ValverdeESPMovistar Team05:29:01  +  00:00:03=40,758 
12 IOMMark CavendishBELEtixx - Quick Step05:29:01  +  00:00:03=40,758 
13 COLRigoberto UranBELEtixx - Quick Step05:29:01  +  00:00:03=40,758 
14 NEDRobert GesinkNLDTeam Lotto NL - Jumbo05:29:01  +  00:00:03=40,758 
15 ITAVincenzo NibaliKAZAstana Pro Team05:29:01  +  00:00:03=40,758 
16 NEDBauke MollemaUSATrek Factory Racing05:29:01  +  00:00:03=40,758 
17 KENChristopher FroomeGBRSky Procycling05:29:01  +  00:00:03=40,758 
18 FRARomain BardetFRAAg2r La Mondiale05:29:01  +  00:00:03=40,758 
19 ESPAlberto ContadorRUSTinkoff Saxo05:29:01  +  00:00:03=40,758 
20 ESPJoaquim RodriguezRUSTeam Katusha05:29:01  +  00:00:03=40,758 
21 FRAWarren BarguilDEUTeam Giant Alpecin05:29:01  +  00:00:03=40,758 
22 WALGeraint ThomasGBRSky Procycling05:29:01  +  00:00:03=40,758 
23 COLNairo QuintanaESPMovistar Team05:29:01  +  00:00:03=40,758 
24 USATejay Van GarderenUSABMC Racing Team05:29:01  +  00:00:03=40,758 
25 USAAndrew TalanskyUSATeam Cannondale - Garmin05:29:01  +  00:00:03=40,758 
26 FRAJean-Christophe PeraudFRAAg2r La Mondiale05:29:01  +  00:00:03=40,758 
27 FRAChristophe LaporteFRACofidis – Solutions Crédits05:29:01  +  00:00:03=40,758 
28 SUIMathias FrankCHEIAM Cycling05:29:01  +  00:00:03=40,758 
29 CZERoman KreuzigerRUSTinkoff Saxo05:29:01  +  00:00:03=40,758 
30 SUIJakob FuglsangKAZAstana Pro Team05:29:01  +  00:00:03=40,758 
31 ITAManuel QuinziatoUSABMC Racing Team05:29:01  +  00:00:03=40,758 
32 BELJan BakelantsFRAAg2r La Mondiale05:29:01  +  00:00:03=40,758 
33 SLOKristjan KorenUSATeam Cannondale - Garmin05:29:01  +  00:00:03=40,758 
34 FRAFlorian SénéchalFRACofidis – Solutions Crédits05:29:01  +  00:00:03=40,758 
35 BELJulien VermoteBELEtixx - Quick Step05:29:01  +  00:00:03=40,758 
36 FRAAngelo TulikFRATeam Europcar05:29:16  +  00:00:18=40,727 
37 NEDKoen De KortDEUTeam Giant Alpecin05:29:41  +  00:00:43=40,675 
38 PORRui CostaITALampre-Merida05:29:49  +  00:00:51=40,659 
39 NEDBram TankinkNLDTeam Lotto NL - Jumbo05:29:49  +  00:00:51=40,659 
40 GERMarcel SiebergBELLotto Soudal05:29:49  +  00:00:51=40,659 
41 ESPAlberto LosadaRUSTeam Katusha05:29:49  +  00:00:51=40,659 
42 FRASylvain ChavanelCHEIAM Cycling05:29:49  +  00:00:51=40,659 
43 FRANicolas RocheGBRSky Procycling05:29:49  +  00:00:51=40,659 
44 GERDominik NerzDEUBora-Argon 1805:29:55  +  00:00:57=40,647 
45 PORNelson OliveiraITALampre-Merida05:30:53  +  00:01:55=40,528 
46 COLJarlinson Pantano GomezCHEIAM Cycling05:30:53  +  00:01:55=40,528 
47 POLMichal GolasBELEtixx - Quick Step05:30:53  +  00:01:55=40,528 
48 ITADaniele BennatiRUSTinkoff Saxo05:31:19  +  00:02:21=40,475 
49 SUIDanilo WyssUSABMC Racing Team05:31:19  +  00:02:21=40,475 
50 BELKenneth VanbilsenFRACofidis – Solutions Crédits05:31:19  +  00:02:21=40,475 
51 ESPJonathan CastroviejoESPMovistar Team05:31:42  +  00:02:44=40,428 
52 ESPGorka Izaguirre InsaustiESPMovistar Team05:31:42  +  00:02:44=40,428 
53 FRAGeoffrey SoupeFRACofidis – Solutions Crédits05:31:52  +  00:02:54=40,408 
54 URSRamunas NavardauskasUSATeam Cannondale - Garmin05:32:21  +  00:03:23=40,349 
55 SUIGregory RastUSATrek Factory Racing05:32:21  +  00:03:23=40,349 
56 PORTiago PintoRUSTeam Katusha05:32:21  +  00:03:23=40,349 
57 GERPaul VossDEUBora-Argon 1805:32:21  +  00:03:23=40,349 
58 BELSerge PauwelsZAFMTN - Qhubeka P/B Samsung05:32:21  +  00:03:23=40,349 
59 ITAFilippo PozzatoITALampre-Merida05:32:21  +  00:03:23=40,349 
60 SUIMichael SchärUSABMC Racing Team05:32:21  +  00:03:23=40,349 
61 UKRAndriy GrivkoKAZAstana Pro Team05:32:21  +  00:03:23=40,349 
62 ARGEduardo SepulvedaFRABretagne - Séché Environnement05:32:21  +  00:03:23=40,349 
63 CZEJan BártaDEUBora-Argon 1805:32:21  +  00:03:23=40,349 
64 NEDRoy CurversDEUTeam Giant Alpecin05:32:21  +  00:03:23=40,349 
65 FRAPierre RollandFRATeam Europcar05:32:21  +  00:03:23=40,349 
66 FRAMickaël CherelFRAAg2r La Mondiale05:32:21  +  00:03:23=40,349 
67 NEDRamon SinkeldamDEUTeam Giant Alpecin05:32:21  +  00:03:23=40,349 
68 FRAThibaut PinotFRAFDJ05:32:21  +  00:03:23=40,349 
69 DENLars BakBELLotto Soudal05:32:21  +  00:03:23=40,349 
70 LUXBen GastauerFRAAg2r La Mondiale05:32:21  +  00:03:23=40,349 
71 ESPMarkel IrizarUSATrek Factory Racing05:32:21  +  00:03:23=40,349 
72 FRAAlexis VuillermozFRAAg2r La Mondiale05:32:21  +  00:03:23=40,349 
73 ITAAdriano MaloriESPMovistar Team05:32:21  +  00:03:23=40,349 
74 NEDJos Van EmdenNLDTeam Lotto NL - Jumbo05:32:21  +  00:03:23=40,349 
75 NEDWilco KeldermanNLDTeam Lotto NL - Jumbo05:32:21  +  00:03:23=40,349 
76 GERAndré GreipelBELLotto Soudal05:32:21  +  00:03:23=40,349 
77 CANRyder HesjedalUSATeam Cannondale - Garmin05:32:21  +  00:03:23=40,349 
78 ESPSamuel SanchezUSABMC Racing Team05:32:21  +  00:03:23=40,349 
79 USATyler FarrarZAFMTN - Qhubeka P/B Samsung05:32:21  +  00:03:23=40,349 
80 AUSMichael RogersRUSTinkoff Saxo05:32:21  +  00:03:23=40,349 
81 FRAAnthony DelaplaceFRABretagne - Séché Environnement05:32:21  +  00:03:23=40,349 
82 FRAPierre-Luc PérichonFRABretagne - Séché Environnement05:32:29  +  00:03:31=40,333 
83 FRAAlexandre GeniezFRAFDJ05:32:39  +  00:03:41=40,313 
84 POLBartosz HuzarskiDEUBora-Argon 1805:32:39  +  00:03:41=40,313 
85 AUSLuke DurbridgeAUSOrica - GreenEDGE05:32:39  +  00:03:41=40,313 
86 SUIMartin ElmigerCHEIAM Cycling05:32:39  +  00:03:41=40,313 
87 SUIReto HollensteinCHEIAM Cycling05:32:39  +  00:03:41=40,313 
88 AUSRohan DennisUSABMC Racing Team05:32:39  +  00:03:41=40,313 
89 AUSZakkari DempsterDEUBora-Argon 1805:32:39  +  00:03:41=40,313 
90 ITADaniel OssUSABMC Racing Team05:32:39  +  00:03:41=40,313 
91 RSAReinardt Janse Van RensburgZAFMTN - Qhubeka P/B Samsung05:32:39  +  00:03:41=40,313 
92 GERSimon GeschkeDEUTeam Giant Alpecin05:32:39  +  00:03:41=40,313 
93 COLJosé SerpaITALampre-Merida05:32:39  +  00:03:41=40,313 
94 NEDTom LeezerNLDTeam Lotto NL - Jumbo05:32:39  +  00:03:41=40,313 
95 URSRein TaaramäeKAZAstana Pro Team05:32:39  +  00:03:41=40,313 
96 FRAArnaud DémareFRAFDJ05:32:47  +  00:03:49=40,296 
97 ENGIan StannardGBRSky Procycling05:32:51  +  00:03:53=40,288 
98 DENMichael ValgrenRUSTinkoff Saxo05:32:51  +  00:03:53=40,288 
99 FRABenoit VaugrenardFRAFDJ05:32:54  +  00:03:56=40,282 
100 FRADamien GaudinFRAAg2r La Mondiale05:32:56  +  00:03:58=40,278 
101 FRAMatthieu LadagnousFRAFDJ05:33:49  +  00:04:51=40,172 
102 NZLJack BauerUSATeam Cannondale - Garmin05:34:35  +  00:05:37=40,080 
103 NEDSebastian LangeveldUSATeam Cannondale - Garmin05:34:35  +  00:05:37=40,080 
104 AUSNathan HaasUSATeam Cannondale - Garmin05:34:35  +  00:05:37=40,080 
105 ENGDaniel MartinUSATeam Cannondale - Garmin05:34:35  +  00:05:37=40,080 
106 BELStijn DevolderUSATrek Factory Racing05:34:35  +  00:05:37=40,080 
107 NEDSteven KruijswijkNLDTeam Lotto NL - Jumbo05:34:35  +  00:05:37=40,080 
108 AUTGeorg PreidlerDEUTeam Giant Alpecin05:34:35  +  00:05:37=40,080 
109 FRAPierrick FédrigoFRABretagne - Séché Environnement05:34:35  +  00:05:37=40,080 
110 FRAArmindo FonsecaFRABretagne - Séché Environnement05:34:35  +  00:05:37=40,080 
111 FRABrice FeilluFRABretagne - Séché Environnement05:34:35  +  00:05:37=40,080 
112 FRAJérémy RoyFRAFDJ05:34:35  +  00:05:37=40,080 
113 FRACyril GautierFRATeam Europcar05:34:35  +  00:05:37=40,080 
114 ESPHaimar ZubeldiaUSATrek Factory Racing05:34:35  +  00:05:37=40,080 
115 SUISteve MorabitoFRAFDJ05:34:35  +  00:05:37=40,080 
116 ENGAdam YatesAUSOrica - GreenEDGE05:34:35  +  00:05:37=40,080 
117 ESPImanol ErvitiESPMovistar Team05:34:35  +  00:05:37=40,080 
118 ESPDaniel NavarroFRACofidis – Solutions Crédits05:34:35  +  00:05:37=40,080 
119 FRASébastien ChavanelFRAFDJ05:34:35  +  00:05:37=40,080 
120 NEDStef ClementCHEIAM Cycling05:34:35  +  00:05:37=40,080 
121 GERPaul MartensNLDTeam Lotto NL - Jumbo05:34:35  +  00:05:37=40,080 
122 ESPLuis Angel MateFRACofidis – Solutions Crédits05:34:35  +  00:05:37=40,080 
123 SUIMarcel WyssCHEIAM Cycling05:34:35  +  00:05:37=40,080 
124 FRAJulien SimonFRACofidis – Solutions Crédits05:34:35  +  00:05:37=40,080 
125 FRAArnaud GérardFRABretagne - Séché Environnement05:34:35  +  00:05:37=40,080 
126 FRARomain SicardFRATeam Europcar05:34:35  +  00:05:37=40,080 
127 FRAYohann GèneFRATeam Europcar05:34:35  +  00:05:37=40,080 
128 FRAFlorian VachonFRABretagne - Séché Environnement05:34:35  +  00:05:37=40,080 
129 FRAPerrig QuemeneurFRATeam Europcar05:34:43  +  00:05:45=40,064 
130 IOMPeter KennaughGBRSky Procycling05:34:48  +  00:05:50=40,054 
131 POLMichal KwiatkowskiBELEtixx - Quick Step05:34:54  +  00:05:56=40,042 
132 ITAMatteo TrentinBELEtixx - Quick Step05:34:54  +  00:05:56=40,042 
133 ITAMatteo TosattoRUSTinkoff Saxo05:34:54  +  00:05:56=40,042 
134 POLRafal MajkaRUSTinkoff Saxo05:34:54  +  00:05:56=40,042 
135 HRVKristijan DurasekITALampre-Merida05:34:54  +  00:05:56=40,042 
136 NEDLieuwe WestraKAZAstana Pro Team05:34:54  +  00:05:56=40,042 
137 NEDWout PoelsGBRSky Procycling05:34:54  +  00:05:56=40,042 
138 ENGSimon YatesAUSOrica - GreenEDGE05:34:54  +  00:05:56=40,042 
139 WALLuke RoweGBRSky Procycling05:34:54  +  00:05:56=40,042 
140 AUSMark RenshawBELEtixx - Quick Step05:34:57  +  00:05:59=40,036 
141 BELJens DebusschereBELLotto Soudal05:34:57  +  00:05:59=40,036 
142 NEDLars BoomKAZAstana Pro Team05:35:01  +  00:06:03=40,028 
143 NORAlexander KristoffRUSTeam Katusha05:35:12  +  00:06:14=40,006 
144 KAZDmitriy GruzdevKAZAstana Pro Team05:35:19  +  00:06:21=39,992 
145 BELSep VanmarckeNLDTeam Lotto NL - Jumbo05:36:01  +  00:07:03=39,909 
146 URSTanel KangertKAZAstana Pro Team05:43:40  +  00:14:42=39,020 
147 AUTMatthias BrändleCHEIAM Cycling05:44:41  +  00:15:43=38,905 
148 PORJosé João PimentaDEUBora-Argon 1805:44:41  +  00:15:43=38,905 
149 NEDDylan Van BaarleUSATeam Cannondale - Garmin05:44:41  +  00:15:43=38,905 
150 LUXBob JungelsUSATrek Factory Racing05:45:51  +  00:16:53=38,774 
151 ERIDaniel TeklehaimanotZAFMTN - Qhubeka P/B Samsung05:45:51  +  00:16:53=38,774 
152 RSAJacques Janse Van RensburgZAFMTN - Qhubeka P/B Samsung05:45:51  +  00:16:53=38,774 
153 ESPJosé Herrada LópezESPMovistar Team05:45:51  +  00:16:53=38,774 
154 GEREmanuel BuchmannDEUBora-Argon 1805:45:51  +  00:16:53=38,774 
155 ERIMerhawi GhebremedhinZAFMTN - Qhubeka P/B Samsung05:45:51  +  00:16:53=38,774 
156 ITAMatteo BonoITALampre-Merida05:45:51  +  00:16:53=38,774 
157 ESPRubén PlazaITALampre-Merida05:45:51  +  00:16:53=38,774 
158 NEDAlbert TimmerDEUTeam Giant Alpecin05:45:51  +  00:16:53=38,774 
159 AUSRichie PorteGBRSky Procycling05:45:51  +  00:16:53=38,774 
160 FRANicolas EdetFRACofidis – Solutions Crédits05:45:51  +  00:16:53=38,774 
161 ESPRafael Valls FerriITALampre-Merida05:45:51  +  00:16:53=38,774 
162 COLJulián ArredondoUSATrek Factory Racing05:45:51  +  00:16:53=38,774 
163 COLWinner AnaconaESPMovistar Team05:45:51  +  00:16:53=38,774 
164 BELThomas De GendtBELLotto Soudal05:45:51  +  00:16:53=38,774 
165 FRABryan NauleauFRATeam Europcar05:45:51  +  00:16:53=38,774 
166 FRAThomas VoecklerFRATeam Europcar05:45:51  +  00:16:53=38,774 
167 ITAIvan BassoRUSTinkoff Saxo05:45:51  +  00:16:53=38,774 
168 BELSam BennettDEUBora-Argon 1805:45:51  +  00:16:53=38,774 
169 ITADavide CimolaiITALampre-Merida05:45:51  +  00:16:53=38,774 
170 FRAChristophe RiblonFRAAg2r La Mondiale05:45:51  +  00:16:53=38,774 
171 ITAMichele ScarponiKAZAstana Pro Team05:45:51  +  00:16:53=38,774 
172 ITALuca PaoliniRUSTeam Katusha05:45:51  +  00:16:53=38,774 
173 ENGStephen CummingsZAFMTN - Qhubeka P/B Samsung05:45:51  +  00:16:53=38,774 
174 CZELeopold KönigGBRSky Procycling05:45:51  +  00:16:53=38,774 
175 LUXLaurent DidierUSATrek Factory Racing05:45:51  +  00:16:53=38,774 
176 ITAGiampaolo CarusoRUSTeam Katusha05:45:51  +  00:16:53=38,774 
177 ITADamiano CarusoUSABMC Racing Team05:45:51  +  00:16:53=38,774 
178 FRAJérôme CoppelCHEIAM Cycling05:45:51  +  00:16:53=38,774 
179 FRAFrédéric BrunFRABretagne - Séché Environnement05:45:51  +  00:16:53=38,774 
180 SUIMichael AlbasiniAUSOrica - GreenEDGE05:45:51  +  00:16:53=38,774 
181 RSALouis MeintjesZAFMTN - Qhubeka P/B Samsung05:45:51  +  00:16:53=38,774 
182 AUTMarco HallerRUSTeam Katusha05:45:51  +  00:16:53=38,774 
183 BELJohan VansummerenFRAAg2r La Mondiale05:45:51  +  00:16:53=38,774 
184 CANSvein TuftAUSOrica - GreenEDGE05:45:51  +  00:16:53=38,774 
185 BELTim WellensBELLotto Soudal05:45:51  +  00:16:53=38,774 
186 NEDLaurens ten DamNLDTeam Lotto NL - Jumbo05:45:51  +  00:16:53=38,774 
187 NZLGregory HendersonBELLotto Soudal05:45:51  +  00:16:53=38,774 
188 AUSAdam HansenBELLotto Soudal05:45:51  +  00:16:53=38,774 
189 NEDPieter WeeningAUSOrica - GreenEDGE05:45:51  +  00:16:53=38,774 
190 AUSMichael MatthewsAUSOrica - GreenEDGE05:45:51  +  00:16:53=38,774 
191 ENGAlex DowsettESPMovistar Team05:55:02  +  00:26:04=37,771 

Withdrawls: 3
 
Rider
Team
Reason
104  RSADaryl ImpeyAUSOrica - GreenEDGEDid not start
143  SUIFabian CancellaraUSATrek Factory RacingDid not start
198  GERAndreas SchillingerDEUBora-Argon 18Did not start

Todays birthdays.

1874  Henri Timmermann
1877  Gustave Guillarme
1886  Guillaume Nyssen
1892  Albert Cartigny
1913  Arsène Mersch
1919  Jean Breuer
1927  Alfred Kain
1930  Edgard Sorgeloos
1937  Frans De Mulder
1960  Jacques Hanegraaf
1986  Andrey Zeits